createdAt,value
2019-03-03T00:00:31.784Z,0.00
2019-03-03T00:01:30.064Z,0.00
2019-03-03T00:02:30.070Z,0.00
2019-03-03T00:03:30.039Z,0.00
2019-03-03T00:04:30.031Z,0.00
2019-03-03T00:05:30.059Z,0.00
2019-03-03T00:06:30.790Z,0.00
2019-03-03T00:07:29.997Z,0.00
2019-03-03T00:08:29.991Z,0.00
2019-03-03T00:09:29.971Z,0.00
2019-03-03T00:10:29.992Z,0.00
2019-03-03T00:11:29.978Z,0.00
2019-03-03T00:12:29.946Z,0.00
2019-03-03T00:13:29.930Z,0.00
2019-03-03T00:14:29.944Z,0.00
2019-03-03T00:15:29.942Z,0.00
2019-03-03T00:16:29.956Z,0.00
2019-03-03T00:17:29.889Z,0.00
2019-03-03T00:18:29.881Z,0.00
2019-03-03T00:19:29.928Z,0.00
2019-03-03T00:20:29.863Z,0.00
2019-03-03T00:21:29.840Z,0.00
2019-03-03T00:22:29.899Z,0.00
2019-03-03T00:23:29.820Z,0.00
2019-03-03T00:24:29.809Z,0.00
2019-03-03T00:25:29.797Z,0.00
2019-03-03T00:26:29.783Z,0.00
2019-03-03T00:27:29.878Z,0.00
2019-03-03T00:28:29.797Z,0.00
2019-03-03T00:29:29.751Z,0.00
2019-03-03T00:30:29.740Z,0.00
2019-03-03T00:31:29.729Z,0.00
2019-03-03T00:32:29.716Z,0.00
2019-03-03T00:33:31.294Z,0.00
2019-03-03T00:34:29.735Z,0.00
2019-03-03T00:35:31.592Z,0.00
2019-03-03T00:36:29.671Z,0.00
2019-03-03T00:37:29.674Z,0.00
2019-03-03T00:38:29.689Z,0.00
2019-03-03T00:39:29.647Z,0.00
2019-03-03T00:40:29.655Z,0.00
2019-03-03T00:41:29.615Z,0.00
2019-03-03T00:42:29.607Z,0.00
2019-03-03T00:43:29.633Z,0.00
2019-03-03T00:44:29.592Z,0.00
2019-03-03T00:45:29.581Z,0.00
2019-03-03T00:46:29.563Z,0.00
2019-03-03T00:47:29.563Z,0.00
2019-03-03T00:48:29.562Z,0.00
2019-03-03T00:49:29.632Z,0.00
2019-03-03T00:50:29.521Z,0.00
2019-03-03T00:51:29.575Z,0.00
2019-03-03T00:52:29.507Z,0.00
2019-03-03T00:53:29.488Z,0.00
2019-03-03T00:54:29.510Z,0.00
2019-03-03T00:55:29.515Z,0.00
2019-03-03T00:56:29.461Z,0.00
2019-03-03T00:57:29.440Z,0.00
2019-03-03T00:58:29.438Z,0.00
2019-03-03T00:59:29.418Z,0.00
2019-03-03T01:00:29.470Z,0.00
2019-03-03T01:01:29.401Z,0.00
2019-03-03T01:02:29.399Z,0.00
2019-03-03T01:03:29.384Z,0.00
2019-03-03T01:04:29.368Z,0.00
2019-03-03T01:05:30.307Z,0.00
2019-03-03T01:06:29.384Z,0.00
2019-03-03T01:07:29.332Z,0.00
2019-03-03T01:08:29.320Z,0.00
2019-03-03T01:09:29.307Z,0.00
2019-03-03T01:10:29.298Z,0.00
2019-03-03T01:11:29.317Z,0.00
2019-03-03T01:12:29.407Z,0.00
2019-03-03T01:13:29.259Z,0.00
2019-03-03T01:14:29.247Z,0.00
2019-03-03T01:15:29.249Z,0.00
2019-03-03T01:16:29.244Z,0.00
2019-03-03T01:17:29.244Z,0.00
2019-03-03T01:18:29.211Z,0.00
2019-03-03T01:19:29.210Z,0.00
2019-03-03T01:20:29.183Z,0.00
2019-03-03T01:21:29.171Z,0.00
2019-03-03T01:22:29.191Z,0.00
2019-03-03T01:23:29.151Z,0.00
2019-03-03T01:24:29.138Z,0.00
2019-03-03T01:25:29.161Z,0.00
2019-03-03T01:26:29.118Z,0.00
2019-03-03T01:27:29.143Z,0.00
2019-03-03T01:28:29.116Z,0.00
2019-03-03T01:29:29.085Z,0.00
2019-03-03T01:30:29.073Z,0.00
2019-03-03T01:31:29.063Z,0.00
2019-03-03T01:32:29.162Z,0.00
2019-03-03T01:33:29.044Z,0.00
2019-03-03T01:34:29.037Z,0.00
2019-03-03T01:35:29.016Z,0.00
2019-03-03T01:36:29.010Z,0.00
2019-03-03T01:37:28.995Z,0.00
2019-03-03T01:38:29.081Z,0.00
2019-03-03T01:39:28.975Z,0.00
2019-03-03T01:40:28.966Z,0.00
2019-03-03T01:41:28.950Z,0.00
2019-03-03T01:42:28.954Z,0.00
2019-03-03T01:43:28.964Z,0.00
2019-03-03T01:44:28.923Z,0.00
2019-03-03T01:45:28.915Z,0.00
2019-03-03T01:46:28.934Z,0.00
2019-03-03T01:47:28.889Z,0.00
2019-03-03T01:48:28.909Z,0.00
2019-03-03T01:49:28.864Z,0.00
2019-03-03T01:50:28.862Z,0.00
2019-03-03T01:51:28.843Z,0.00
2019-03-03T01:52:28.897Z,0.00
2019-03-03T01:53:28.862Z,0.00
2019-03-03T01:54:28.814Z,0.00
2019-03-03T01:55:28.801Z,0.00
2019-03-03T01:56:28.795Z,0.00
2019-03-03T01:57:28.776Z,0.00
2019-03-03T01:58:28.810Z,0.00
2019-03-03T01:59:28.850Z,0.00
2019-03-03T02:00:28.747Z,0.00
2019-03-03T02:01:28.738Z,0.00
2019-03-03T02:02:28.756Z,0.00
2019-03-03T02:03:28.713Z,0.00
2019-03-03T02:04:28.730Z,0.00
2019-03-03T02:05:28.718Z,0.00
2019-03-03T02:06:28.676Z,0.00
2019-03-03T02:07:28.671Z,0.00
2019-03-03T02:08:28.658Z,0.00
2019-03-03T02:09:29.310Z,0.00
2019-03-03T02:10:28.699Z,0.00
2019-03-03T02:11:28.626Z,0.00
2019-03-03T02:12:28.613Z,0.00
2019-03-03T02:13:28.600Z,0.00
2019-03-03T02:14:28.609Z,0.00
2019-03-03T02:15:28.577Z,0.00
2019-03-03T02:16:28.603Z,0.00
2019-03-03T02:17:28.553Z,0.00
2019-03-03T02:18:28.557Z,0.00
2019-03-03T02:19:28.598Z,0.00
2019-03-03T02:20:28.533Z,0.00
2019-03-03T02:21:28.519Z,0.00
2019-03-03T02:22:28.555Z,0.00
2019-03-03T02:23:28.493Z,0.00
2019-03-03T02:24:28.478Z,0.00
2019-03-03T02:25:28.495Z,0.00
2019-03-03T02:26:28.457Z,0.00
2019-03-03T02:27:28.459Z,0.00
2019-03-03T02:28:28.494Z,0.00
2019-03-03T02:29:28.426Z,0.00
2019-03-03T02:30:29.314Z,0.00
2019-03-03T02:31:28.418Z,0.00
2019-03-03T02:32:28.390Z,0.00
2019-03-03T02:33:28.409Z,0.00
2019-03-03T02:34:28.371Z,0.00
2019-03-03T02:35:28.479Z,0.00
2019-03-03T02:36:28.363Z,0.00
2019-03-03T02:37:28.366Z,0.00
2019-03-03T02:38:28.325Z,0.00
2019-03-03T02:39:28.322Z,0.00
2019-03-03T02:40:28.313Z,0.00
2019-03-03T02:41:28.321Z,0.00
2019-03-03T02:42:28.296Z,0.00
2019-03-03T02:43:28.274Z,0.00
2019-03-03T02:44:28.263Z,0.00
2019-03-03T02:45:28.253Z,0.00
2019-03-03T02:46:28.270Z,0.00
2019-03-03T02:47:28.230Z,0.00
2019-03-03T02:48:28.246Z,0.00
2019-03-03T02:49:28.224Z,0.00
2019-03-03T02:50:28.226Z,0.00
2019-03-03T02:51:28.206Z,0.00
2019-03-03T02:52:28.301Z,0.00
2019-03-03T02:53:28.158Z,0.00
2019-03-03T02:54:28.155Z,0.00
2019-03-03T02:55:28.195Z,0.00
2019-03-03T02:56:28.151Z,0.00
2019-03-03T02:57:28.115Z,0.00
2019-03-03T02:58:28.112Z,0.00
2019-03-03T02:59:28.092Z,0.00
2019-03-03T03:00:28.098Z,0.00
2019-03-03T03:01:28.098Z,0.00
2019-03-03T03:02:28.062Z,0.00
2019-03-03T03:03:28.076Z,0.00
2019-03-03T03:04:28.039Z,0.00
2019-03-03T03:05:28.043Z,0.00
2019-03-03T03:06:28.052Z,0.00
2019-03-03T03:07:28.008Z,0.00
2019-03-03T03:08:28.077Z,0.00
2019-03-03T03:09:27.992Z,0.00
2019-03-03T03:10:27.974Z,0.00
2019-03-03T03:11:27.975Z,0.00
2019-03-03T03:12:27.994Z,0.00
2019-03-03T03:13:27.947Z,0.00
2019-03-03T03:14:31.372Z,0.00
2019-03-03T03:15:27.925Z,0.00
2019-03-03T03:16:27.917Z,0.00
2019-03-03T03:17:27.902Z,0.00
2019-03-03T03:18:28.032Z,0.00
2019-03-03T03:19:29.849Z,0.00
2019-03-03T03:20:27.866Z,0.00
2019-03-03T03:21:27.852Z,0.00
2019-03-03T03:22:27.866Z,0.00
2019-03-03T03:23:27.827Z,0.00
2019-03-03T03:24:27.874Z,0.00
2019-03-03T03:25:28.826Z,0.00
2019-03-03T03:26:27.794Z,0.00
2019-03-03T03:27:27.905Z,0.00
2019-03-03T03:28:27.773Z,0.00
2019-03-03T03:29:27.766Z,0.00
2019-03-03T03:30:27.807Z,0.00
2019-03-03T03:31:27.755Z,0.00
2019-03-03T03:32:27.735Z,0.00
2019-03-03T03:33:27.732Z,0.00
2019-03-03T03:34:27.719Z,0.00
2019-03-03T03:35:27.816Z,0.00
2019-03-03T03:36:27.691Z,0.00
2019-03-03T03:37:27.679Z,0.00
2019-03-03T03:38:27.677Z,0.00
2019-03-03T03:39:27.654Z,0.00
2019-03-03T03:40:27.650Z,0.00
2019-03-03T03:41:27.696Z,0.00
2019-03-03T03:42:27.670Z,0.00
2019-03-03T03:43:27.616Z,0.00
2019-03-03T03:44:27.605Z,0.00
2019-03-03T03:45:27.589Z,0.00
2019-03-03T03:46:28.388Z,0.00
2019-03-03T03:47:27.656Z,0.00
2019-03-03T03:48:27.558Z,0.00
2019-03-03T03:49:27.548Z,0.00
2019-03-03T03:50:27.594Z,0.00
2019-03-03T03:51:27.534Z,0.00
2019-03-03T03:52:29.341Z,0.00
2019-03-03T03:53:27.530Z,0.00
2019-03-03T03:54:27.495Z,0.00
2019-03-03T03:55:27.489Z,0.00
2019-03-03T03:56:27.475Z,0.00
2019-03-03T03:57:28.341Z,0.00
2019-03-03T03:58:27.462Z,0.00
2019-03-03T03:59:27.432Z,0.00
2019-03-03T04:00:27.462Z,0.00
2019-03-03T04:01:27.421Z,0.00
2019-03-03T04:02:27.499Z,0.00
2019-03-03T04:03:27.395Z,0.00
2019-03-03T04:04:27.388Z,0.00
2019-03-03T04:05:27.373Z,0.00
2019-03-03T04:06:27.359Z,0.00
2019-03-03T04:07:27.409Z,0.00
2019-03-03T04:08:27.363Z,0.00
2019-03-03T04:09:27.329Z,0.00
2019-03-03T04:10:27.317Z,0.00
2019-03-03T04:11:27.316Z,0.00
2019-03-03T04:12:27.304Z,0.00
2019-03-03T04:13:27.862Z,0.00
2019-03-03T04:14:27.329Z,0.00
2019-03-03T04:15:27.278Z,0.00
2019-03-03T04:16:27.250Z,0.00
2019-03-03T04:17:27.237Z,0.00
2019-03-03T04:18:27.253Z,0.00
2019-03-03T04:19:27.253Z,0.00
2019-03-03T04:20:27.215Z,0.00
2019-03-03T04:21:27.241Z,0.00
2019-03-03T04:22:27.185Z,0.00
2019-03-03T04:23:28.848Z,0.00
2019-03-03T04:24:27.159Z,0.00
2019-03-03T04:25:27.163Z,0.00
2019-03-03T04:26:27.139Z,0.00
2019-03-03T04:27:27.129Z,0.00
2019-03-03T04:28:27.153Z,0.00
2019-03-03T04:29:27.124Z,0.00
2019-03-03T04:30:27.095Z,0.00
2019-03-03T04:31:27.126Z,0.00
2019-03-03T04:32:27.063Z,0.00
2019-03-03T04:33:27.055Z,0.00
2019-03-03T04:34:27.112Z,0.00
2019-03-03T04:35:27.101Z,0.00
2019-03-03T04:36:27.115Z,0.00
2019-03-03T04:37:27.042Z,0.00
2019-03-03T04:38:27.006Z,0.00
2019-03-03T04:39:27.107Z,0.00
2019-03-03T04:40:27.025Z,0.00
2019-03-03T04:41:26.969Z,0.00
2019-03-03T04:42:26.957Z,0.00
2019-03-03T04:43:27.014Z,0.00
2019-03-03T04:44:27.035Z,0.00
2019-03-03T04:45:27.932Z,0.00
2019-03-03T04:46:27.065Z,0.00
2019-03-03T04:47:26.921Z,0.00
2019-03-03T04:48:26.932Z,0.00
2019-03-03T04:49:26.894Z,0.00
2019-03-03T04:50:26.895Z,0.00
2019-03-03T04:51:26.860Z,0.00
2019-03-03T04:52:26.887Z,0.00
2019-03-03T04:53:26.853Z,0.00
2019-03-03T04:54:26.838Z,0.00
2019-03-03T04:55:26.883Z,0.00
2019-03-03T04:56:26.807Z,0.00
2019-03-03T04:57:26.837Z,0.00
2019-03-03T04:58:26.782Z,0.00
2019-03-03T04:59:26.771Z,0.00
2019-03-03T05:00:26.865Z,0.00
2019-03-03T05:01:26.814Z,0.00
2019-03-03T05:02:26.739Z,0.00
2019-03-03T05:03:26.798Z,0.00
2019-03-03T05:04:26.733Z,0.00
2019-03-03T05:05:26.697Z,0.00
2019-03-03T05:06:26.729Z,0.00
2019-03-03T05:07:26.679Z,0.00
2019-03-03T05:08:26.719Z,0.00
2019-03-03T05:09:26.666Z,0.00
2019-03-03T05:10:26.645Z,0.00
2019-03-03T05:11:28.214Z,0.00
2019-03-03T05:12:26.623Z,0.00
2019-03-03T05:13:26.628Z,0.00
2019-03-03T05:14:26.616Z,0.00
2019-03-03T05:15:26.586Z,0.00
2019-03-03T05:16:26.604Z,0.00
2019-03-03T05:17:31.420Z,0.00
2019-03-03T05:18:26.550Z,0.00
2019-03-03T05:19:26.555Z,0.00
2019-03-03T05:20:26.568Z,0.00
2019-03-03T05:21:26.517Z,0.00
2019-03-03T05:22:26.570Z,0.00
2019-03-03T05:23:26.506Z,0.00
2019-03-03T05:24:33.953Z,0.00
2019-03-03T05:25:27.479Z,0.00
2019-03-03T05:26:26.502Z,0.00
2019-03-03T05:27:26.453Z,0.00
2019-03-03T05:28:27.392Z,0.00
2019-03-03T05:29:26.430Z,0.00
2019-03-03T05:30:26.425Z,0.00
2019-03-03T05:31:26.417Z,0.00
2019-03-03T05:32:26.434Z,0.00
2019-03-03T05:33:27.370Z,0.00
2019-03-03T05:34:26.377Z,0.00
2019-03-03T05:35:26.387Z,0.00
2019-03-03T05:36:26.381Z,0.00
2019-03-03T05:37:26.341Z,0.00
2019-03-03T05:38:26.427Z,0.00
2019-03-03T05:39:26.318Z,0.00
2019-03-03T05:40:26.365Z,0.00
2019-03-03T05:41:26.302Z,0.00
2019-03-03T05:42:26.289Z,0.00
2019-03-03T05:43:26.333Z,0.00
2019-03-03T05:44:27.896Z,0.00
2019-03-03T05:45:26.300Z,0.00
2019-03-03T05:46:26.267Z,0.00
2019-03-03T05:47:26.236Z,0.00
2019-03-03T05:48:26.224Z,0.00
2019-03-03T05:49:26.318Z,0.00
2019-03-03T05:50:26.201Z,4.00
2019-03-03T05:51:26.198Z,4.00
2019-03-03T05:52:26.194Z,4.00
2019-03-03T05:53:26.167Z,4.00
2019-03-03T05:54:27.913Z,4.00
2019-03-03T05:55:26.168Z,4.00
2019-03-03T05:56:26.138Z,8.00
2019-03-03T05:57:26.161Z,8.00
2019-03-03T05:58:26.132Z,8.00
2019-03-03T05:59:26.154Z,8.00
2019-03-03T06:00:26.103Z,8.00
2019-03-03T06:01:26.124Z,12.00
2019-03-03T06:02:26.063Z,12.00
2019-03-03T06:03:26.091Z,16.00
2019-03-03T06:04:26.055Z,16.00
2019-03-03T06:05:30.877Z,20.00
2019-03-03T06:06:26.045Z,24.00
2019-03-03T06:07:26.025Z,28.00
2019-03-03T06:08:26.002Z,28.00
2019-03-03T06:09:26.007Z,32.00
2019-03-03T06:10:26.938Z,32.00
2019-03-03T06:11:25.960Z,32.00
2019-03-03T06:12:25.957Z,32.00
2019-03-03T06:13:25.964Z,36.00
2019-03-03T06:14:25.929Z,36.00
2019-03-03T06:15:26.873Z,36.00
2019-03-03T06:16:25.916Z,44.00
2019-03-03T06:17:26.094Z,40.00
2019-03-03T06:18:25.962Z,44.00
2019-03-03T06:19:25.875Z,64.00
2019-03-03T06:20:27.825Z,64.00
2019-03-03T06:21:25.875Z,72.00
2019-03-03T06:22:25.864Z,72.00
2019-03-03T06:23:25.890Z,80.00
2019-03-03T06:24:25.817Z,100.00
2019-03-03T06:25:25.907Z,88.00
2019-03-03T06:26:25.853Z,80.00
2019-03-03T06:27:26.049Z,88.00
2019-03-03T06:28:25.790Z,96.00
2019-03-03T06:29:26.072Z,96.00
2019-03-03T06:30:25.819Z,104.00
2019-03-03T06:31:29.402Z,116.00
2019-03-03T06:32:25.805Z,148.00
2019-03-03T06:33:25.878Z,136.00
2019-03-03T06:34:25.933Z,180.00
2019-03-03T06:35:25.746Z,180.00
2019-03-03T06:36:26.445Z,232.00
2019-03-03T06:37:25.759Z,276.00
2019-03-03T06:38:25.765Z,288.00
2019-03-03T06:39:25.661Z,304.00
2019-03-03T06:40:25.661Z,344.00
2019-03-03T06:42:04.864Z,320.00
2019-03-03T06:42:25.621Z,348.00
2019-03-03T06:43:25.609Z,348.00
2019-03-03T06:44:25.695Z,384.00
2019-03-03T06:45:25.653Z,332.00
2019-03-03T06:46:25.599Z,412.00
2019-03-03T06:47:33.913Z,420.00
2019-03-03T06:48:25.557Z,388.00
2019-03-03T06:49:25.534Z,352.00
2019-03-03T06:50:25.602Z,368.00
2019-03-03T06:51:25.516Z,504.00
2019-03-03T06:52:34.893Z,544.00
2019-03-03T06:53:25.492Z,556.00
2019-03-03T06:54:25.481Z,500.00
2019-03-03T06:55:25.480Z,400.00
2019-03-03T06:56:25.477Z,476.00
2019-03-03T06:57:43.864Z,520.00
2019-03-03T06:58:25.449Z,460.00
2019-03-03T06:59:25.484Z,648.00
2019-03-03T07:00:25.422Z,724.00
2019-03-03T07:01:25.405Z,836.00
2019-03-03T07:02:40.446Z,644.00
2019-03-03T07:03:25.435Z,532.00
2019-03-03T07:04:25.397Z,472.00
2019-03-03T07:05:26.106Z,520.00
2019-03-03T07:06:25.345Z,548.00
2019-03-03T07:07:25.341Z,652.00
2019-03-03T07:09:35.173Z,788.00
2019-03-03T07:10:35.200Z,740.00
2019-03-03T07:11:35.148Z,872.00
2019-03-03T07:12:35.171Z,892.00
2019-03-03T07:13:35.206Z,776.00
2019-03-03T07:14:35.108Z,864.00
2019-03-03T07:15:35.102Z,1236.00
2019-03-03T07:16:35.148Z,1124.00
2019-03-03T07:17:35.160Z,1256.00
2019-03-03T07:18:35.127Z,1340.00
2019-03-03T07:19:35.083Z,1084.00
2019-03-03T07:20:35.050Z,1268.00
2019-03-03T07:21:35.783Z,1440.00
2019-03-03T07:22:35.022Z,1264.00
2019-03-03T07:23:35.074Z,1468.00
2019-03-03T07:24:35.002Z,1612.00
2019-03-03T07:25:35.008Z,1924.00
2019-03-03T07:26:34.980Z,1764.00
2019-03-03T07:27:34.966Z,1896.00
2019-03-03T07:28:34.977Z,1888.00
2019-03-03T07:29:34.948Z,2004.00
2019-03-03T07:30:34.950Z,1744.00
2019-03-03T07:31:34.935Z,1888.00
2019-03-03T07:32:34.938Z,1844.00
2019-03-03T07:33:34.933Z,2056.00
2019-03-03T07:34:34.914Z,2308.00
2019-03-03T07:35:34.924Z,2188.00
2019-03-03T07:36:34.875Z,2400.00
2019-03-03T07:37:34.884Z,1976.00
2019-03-03T07:38:34.885Z,1780.00
2019-03-03T07:39:34.863Z,1620.00
2019-03-03T07:40:35.775Z,1476.00
2019-03-03T07:41:34.840Z,1468.00
2019-03-03T07:42:34.845Z,1812.00
2019-03-03T07:43:34.843Z,1968.00
2019-03-03T07:44:34.814Z,2572.00
2019-03-03T07:45:34.852Z,1944.00
2019-03-03T07:46:34.761Z,1520.00
2019-03-03T07:47:34.748Z,1708.00
2019-03-03T07:48:34.831Z,1908.00
2019-03-03T07:49:34.764Z,2236.00
2019-03-03T07:50:34.715Z,2584.00
2019-03-03T07:51:34.719Z,2348.00
2019-03-03T07:52:35.715Z,2564.00
2019-03-03T07:53:34.689Z,2880.00
2019-03-03T07:54:34.696Z,2880.00
2019-03-03T07:55:34.669Z,2536.00
2019-03-03T07:56:34.658Z,2652.00
2019-03-03T07:57:34.648Z,2644.00
2019-03-03T07:58:35.643Z,2304.00
2019-03-03T07:59:35.762Z,3032.00
2019-03-03T08:00:34.613Z,2984.00
2019-03-03T08:01:35.645Z,2624.00
2019-03-03T08:02:34.590Z,3144.00
2019-03-03T08:03:34.613Z,3072.00
2019-03-03T08:04:34.628Z,2480.00
2019-03-03T08:05:34.556Z,2564.00
2019-03-03T08:06:35.567Z,2544.00
2019-03-03T08:07:34.533Z,2476.00
2019-03-03T08:08:34.517Z,2552.00
2019-03-03T08:09:34.528Z,2696.00
2019-03-03T08:10:34.531Z,2392.00
2019-03-03T08:11:34.563Z,2732.00
2019-03-03T08:12:34.465Z,2820.00
2019-03-03T08:13:35.483Z,2936.00
2019-03-03T08:14:34.471Z,3112.00
2019-03-03T08:15:34.437Z,2804.00
2019-03-03T08:16:34.424Z,2644.00
2019-03-03T08:17:35.324Z,2484.00
2019-03-03T08:18:34.441Z,2736.00
2019-03-03T08:19:34.434Z,2908.00
2019-03-03T08:20:34.387Z,3376.00
2019-03-03T08:21:34.377Z,2688.00
2019-03-03T08:22:34.367Z,2680.00
2019-03-03T08:23:35.259Z,2912.00
2019-03-03T08:24:34.429Z,3172.00
2019-03-03T08:25:34.351Z,3012.00
2019-03-03T08:26:34.318Z,2568.00
2019-03-03T08:27:34.405Z,2368.00
2019-03-03T08:28:34.295Z,3344.00
2019-03-03T08:29:34.304Z,3168.00
2019-03-03T08:30:34.298Z,3264.00
2019-03-03T08:31:34.286Z,3208.00
2019-03-03T08:32:34.260Z,3512.00
2019-03-03T08:33:34.330Z,3076.00
2019-03-03T08:34:34.265Z,3004.00
2019-03-03T08:35:34.224Z,3048.00
2019-03-03T08:36:34.254Z,4396.00
2019-03-03T08:37:34.248Z,3216.00
2019-03-03T08:38:34.235Z,4140.00
2019-03-03T08:39:34.196Z,3396.00
2019-03-03T08:40:34.169Z,3968.00
2019-03-03T08:41:35.163Z,3884.00
2019-03-03T08:42:36.922Z,3516.00
2019-03-03T08:43:34.127Z,3236.00
2019-03-03T08:44:34.156Z,3432.00
2019-03-03T08:45:34.151Z,3448.00
2019-03-03T08:46:34.102Z,3288.00
2019-03-03T08:47:34.126Z,4312.00
2019-03-03T08:48:34.080Z,3768.00
2019-03-03T08:49:34.108Z,3864.00
2019-03-03T08:50:34.764Z,3956.00
2019-03-03T08:51:35.067Z,3548.00
2019-03-03T08:52:34.035Z,3700.00
2019-03-03T08:53:34.076Z,3736.00
2019-03-03T08:54:34.031Z,3696.00
2019-03-03T08:55:37.759Z,3328.00
2019-03-03T08:56:34.017Z,2864.00
2019-03-03T08:57:34.986Z,3128.00
2019-03-03T08:58:34.872Z,2848.00
2019-03-03T08:59:33.978Z,3208.00
2019-03-03T09:00:34.030Z,2932.00
2019-03-03T09:01:33.935Z,3004.00
2019-03-03T09:02:33.922Z,4512.00
2019-03-03T09:03:33.915Z,4396.00
2019-03-03T09:04:33.998Z,5024.00
2019-03-03T09:05:33.886Z,5720.00
2019-03-03T09:06:34.899Z,3532.00
2019-03-03T09:07:33.924Z,3404.00
2019-03-03T09:08:33.853Z,4564.00
2019-03-03T09:09:33.841Z,5036.00
2019-03-03T09:10:33.865Z,6192.00
2019-03-03T09:11:33.837Z,4648.00
2019-03-03T09:12:33.830Z,3948.00
2019-03-03T09:13:33.810Z,3992.00
2019-03-03T09:14:33.790Z,5464.00
2019-03-03T09:15:33.799Z,6532.00
2019-03-03T09:16:33.774Z,5164.00
2019-03-03T09:17:34.265Z,3292.00
2019-03-03T09:18:33.755Z,4584.00
2019-03-03T09:19:34.341Z,7516.00
2019-03-03T09:20:33.745Z,6556.00
2019-03-03T09:21:33.772Z,6168.00
2019-03-03T09:22:33.713Z,7552.00
2019-03-03T09:23:33.742Z,4492.00
2019-03-03T09:24:33.677Z,4240.00
2019-03-03T09:25:34.411Z,5616.00
2019-03-03T09:26:33.659Z,4852.00
2019-03-03T09:27:33.650Z,4840.00
2019-03-03T09:28:33.665Z,6084.00
2019-03-03T09:29:33.625Z,5768.00
2019-03-03T09:30:33.674Z,5572.00
2019-03-03T09:31:33.607Z,7396.00
2019-03-03T09:32:33.589Z,5832.00
2019-03-03T09:33:33.606Z,4928.00
2019-03-03T09:34:33.575Z,5232.00
2019-03-03T09:35:33.572Z,6224.00
2019-03-03T09:36:33.595Z,6556.00
2019-03-03T09:37:33.551Z,6588.00
2019-03-03T09:38:33.538Z,6560.00
2019-03-03T09:39:33.519Z,6276.00
2019-03-03T09:40:33.521Z,6340.00
2019-03-03T09:41:33.515Z,6828.00
2019-03-03T09:42:33.486Z,5620.00
2019-03-03T09:43:34.300Z,6496.00
2019-03-03T09:44:33.518Z,6288.00
2019-03-03T09:45:33.448Z,5804.00
2019-03-03T09:46:33.471Z,5844.00
2019-03-03T09:47:33.459Z,6016.00
2019-03-03T09:48:33.413Z,7000.00
2019-03-03T09:49:33.406Z,6260.00
2019-03-03T09:50:33.398Z,6648.00
2019-03-03T09:51:33.427Z,8584.00
2019-03-03T09:52:33.425Z,7340.00
2019-03-03T09:53:33.364Z,6100.00
2019-03-03T09:54:33.346Z,5392.00
2019-03-03T09:55:33.334Z,6592.00
2019-03-03T09:56:33.845Z,6936.00
2019-03-03T09:57:34.331Z,6380.00
2019-03-03T09:58:33.351Z,5604.00
2019-03-03T09:59:33.294Z,8452.00
2019-03-03T10:00:33.277Z,5996.00
2019-03-03T10:01:33.365Z,6332.00
2019-03-03T10:02:33.262Z,5588.00
2019-03-03T10:03:33.247Z,5244.00
2019-03-03T10:04:33.244Z,5900.00
2019-03-03T10:05:33.286Z,5944.00
2019-03-03T10:06:33.239Z,5880.00
2019-03-03T10:07:33.234Z,5296.00
2019-03-03T10:08:33.230Z,5320.00
2019-03-03T10:09:33.280Z,4636.00
2019-03-03T10:10:33.228Z,4620.00
2019-03-03T10:11:33.168Z,4944.00
2019-03-03T10:12:33.229Z,4652.00
2019-03-03T10:13:33.132Z,4392.00
2019-03-03T10:14:33.137Z,5164.00
2019-03-03T10:15:33.109Z,5488.00
2019-03-03T10:16:33.127Z,5768.00
2019-03-03T10:17:33.221Z,5120.00
2019-03-03T10:18:33.074Z,5452.00
2019-03-03T10:19:33.080Z,5532.00
2019-03-03T10:20:33.052Z,5532.00
2019-03-03T10:21:33.065Z,5028.00
2019-03-03T10:22:33.064Z,5296.00
2019-03-03T10:23:33.055Z,5388.00
2019-03-03T10:24:33.009Z,4856.00
2019-03-03T10:25:34.017Z,5396.00
2019-03-03T10:26:34.998Z,5584.00
2019-03-03T10:27:32.983Z,4820.00
2019-03-03T10:28:33.835Z,5068.00
2019-03-03T10:29:33.996Z,4544.00
2019-03-03T10:30:33.963Z,4864.00
2019-03-03T10:31:32.976Z,5864.00
2019-03-03T10:32:33.774Z,5644.00
2019-03-03T10:33:32.955Z,5272.00
2019-03-03T10:34:32.924Z,4740.00
2019-03-03T10:35:32.915Z,5620.00
2019-03-03T10:36:32.893Z,5468.00
2019-03-03T10:37:32.869Z,6056.00
2019-03-03T10:38:36.108Z,5376.00
2019-03-03T10:39:32.863Z,5144.00
2019-03-03T10:40:32.836Z,4536.00
2019-03-03T10:41:32.865Z,4600.00
2019-03-03T10:42:32.841Z,5008.00
2019-03-03T10:43:32.916Z,4804.00
2019-03-03T10:44:32.802Z,5652.00
2019-03-03T10:45:32.800Z,5928.00
2019-03-03T10:46:32.797Z,6632.00
2019-03-03T10:47:32.794Z,5032.00
2019-03-03T10:48:32.760Z,4492.00
2019-03-03T10:49:32.769Z,5644.00
2019-03-03T10:50:32.765Z,5564.00
2019-03-03T10:51:32.858Z,5680.00
2019-03-03T10:52:32.783Z,6056.00
2019-03-03T10:53:32.697Z,6648.00
2019-03-03T10:54:32.928Z,5804.00
2019-03-03T10:55:32.678Z,5008.00
2019-03-03T10:56:32.675Z,5076.00
2019-03-03T10:57:32.656Z,5116.00
2019-03-03T10:58:32.637Z,5472.00
2019-03-03T10:59:32.657Z,6388.00
2019-03-03T11:00:32.648Z,5968.00
2019-03-03T11:01:32.616Z,5924.00
2019-03-03T11:02:32.603Z,6340.00
2019-03-03T11:03:32.604Z,5500.00
2019-03-03T11:04:32.569Z,5492.00
2019-03-03T11:05:33.449Z,5220.00
2019-03-03T11:06:32.568Z,4088.00
2019-03-03T11:07:33.337Z,4144.00
2019-03-03T11:08:32.539Z,4800.00
2019-03-03T11:09:32.525Z,5900.00
2019-03-03T11:10:32.565Z,5284.00
2019-03-03T11:11:32.499Z,4360.00
2019-03-03T11:12:32.501Z,4240.00
2019-03-03T11:13:32.481Z,5080.00
2019-03-03T11:14:33.385Z,4800.00
2019-03-03T11:15:32.477Z,4152.00
2019-03-03T11:16:32.449Z,4400.00
2019-03-03T11:17:32.445Z,3740.00
2019-03-03T11:18:32.422Z,4044.00
2019-03-03T11:19:33.472Z,4052.00
2019-03-03T11:20:33.992Z,4012.00
2019-03-03T11:21:32.518Z,3876.00
2019-03-03T11:22:32.380Z,4976.00
2019-03-03T11:23:32.397Z,4956.00
2019-03-03T11:24:32.366Z,4632.00
2019-03-03T11:25:32.488Z,3848.00
2019-03-03T11:26:32.451Z,4160.00
2019-03-03T11:27:32.325Z,6164.00
2019-03-03T11:28:32.345Z,4856.00
2019-03-03T11:29:32.310Z,6096.00
2019-03-03T11:30:32.322Z,7456.00
2019-03-03T11:31:32.406Z,9328.00
2019-03-03T11:32:32.274Z,12672.00
2019-03-03T11:33:32.265Z,11820.00
2019-03-03T11:34:32.241Z,11964.00
2019-03-03T11:35:34.805Z,12128.00
2019-03-03T11:36:35.810Z,14260.00
2019-03-03T11:37:32.209Z,15208.00
2019-03-03T11:38:32.218Z,12724.00
2019-03-03T11:39:32.265Z,12576.00
2019-03-03T11:40:32.179Z,13260.00
2019-03-03T11:41:32.205Z,11832.00
2019-03-03T11:42:32.182Z,12456.00
2019-03-03T11:43:32.151Z,14276.00
2019-03-03T11:44:32.166Z,14524.00
2019-03-03T11:45:32.167Z,13076.00
2019-03-03T11:46:32.222Z,10448.00
2019-03-03T11:47:32.159Z,8336.00
2019-03-03T11:48:32.094Z,7468.00
2019-03-03T11:49:32.090Z,9548.00
2019-03-03T11:50:32.114Z,8060.00
2019-03-03T11:51:32.113Z,11780.00
2019-03-03T11:52:32.051Z,13788.00
2019-03-03T11:53:32.796Z,13012.00
2019-03-03T11:54:32.049Z,12536.00
2019-03-03T11:55:32.007Z,12504.00
2019-03-03T11:56:32.016Z,13640.00
2019-03-03T11:57:31.982Z,14828.00
2019-03-03T11:58:31.974Z,14348.00
2019-03-03T11:59:31.962Z,16928.00
2019-03-03T12:00:33.809Z,15548.00
2019-03-03T12:01:31.977Z,13764.00
2019-03-03T12:02:32.697Z,14992.00
2019-03-03T12:03:31.922Z,16764.00
2019-03-03T12:04:31.913Z,15568.00
2019-03-03T12:05:31.903Z,12124.00
2019-03-03T12:06:31.888Z,10788.00
2019-03-03T12:07:31.937Z,9592.00
2019-03-03T12:08:31.903Z,10808.00
2019-03-03T12:09:31.869Z,11904.00
2019-03-03T12:10:31.838Z,12440.00
2019-03-03T12:11:31.857Z,12312.00
2019-03-03T12:12:31.832Z,8856.00
2019-03-03T12:13:31.815Z,9860.00
2019-03-03T12:14:31.789Z,7488.00
2019-03-03T12:15:31.784Z,5456.00
2019-03-03T12:16:31.794Z,5956.00
2019-03-03T12:17:31.834Z,7916.00
2019-03-03T12:18:31.759Z,7076.00
2019-03-03T12:19:31.742Z,8324.00
2019-03-03T12:20:31.803Z,8176.00
2019-03-03T12:21:31.715Z,8192.00
2019-03-03T12:22:31.733Z,10980.00
2019-03-03T12:23:31.745Z,13176.00
2019-03-03T12:24:31.767Z,12216.00
2019-03-03T12:25:31.679Z,13048.00
2019-03-03T12:26:31.659Z,14324.00
2019-03-03T12:27:31.670Z,14492.00
2019-03-03T12:28:31.645Z,13856.00
2019-03-03T12:29:31.621Z,10388.00
2019-03-03T12:30:31.614Z,9416.00
2019-03-03T12:31:31.604Z,9384.00
2019-03-03T12:32:31.657Z,8684.00
2019-03-03T12:33:31.583Z,8620.00
2019-03-03T12:34:31.573Z,8736.00
2019-03-03T12:35:31.568Z,8944.00
2019-03-03T12:36:31.621Z,7712.00
2019-03-03T12:37:31.563Z,8864.00
2019-03-03T12:38:31.582Z,9040.00
2019-03-03T12:39:31.568Z,9416.00
2019-03-03T12:40:31.507Z,10620.00
2019-03-03T12:41:31.496Z,10368.00